Latest Weather Observations for Mount Hotham Airport

IDV60801

Issued at 9:05 pm EST Tuesday 16 September 2014 (issued every 30 minutes, with the page automatically refreshed every 10 minutes)

About weather observations | Map of weather stations | Latest weather observations for VIC | Other Formats
Station Details ID: 083055 Name: MOUNT HOTHAM AIRPORT Lat: -37.05 Lon: 147.33 Height: 1295.4 m
Data from the previous 72 hours. | See also: Recent months at Mount Hotham Airport
Date/Time
EST
Temp
°C
App
Temp
°C
Dew
Point
Rel
Hum
%
Delta-T
°C
Wind Press
QNH
hPa
Press
MSL
hPa
Rain
since 9 am
mm
Dir
 
Spd
km/h
Gust
km/h
Spd
kts
Gust
kts
16/09:00pm 5.2 2.9 4.6 96 0.3 SSE 6 11 3 6 1010.9 1012.9 2.8
16/08:30pm 5.4 2.1 4.5 94 0.4 WSW 11 19 6 10 1010.9 - 2.8
16/08:17pm 5.5 2.6 4.6 94 0.4 WSW 9 15 5 8 1010.8 - 2.8
16/08:00pm 5.6 2.7 4.9 95 0.3 SW 9 20 5 11 1010.6 - 2.2
16/07:58pm 5.6 2.7 4.9 95 0.3 SW 9 11 5 6 1010.6 - 1.8
16/07:30pm 5.2 2.6 4.0 92 0.6 WSW 7 11 4 6 1010.3 - 1.2
16/07:00pm 5.7 2.8 4.8 94 0.4 WNW 9 13 5 7 1010.1 - 1.2
16/06:30pm 5.8 3.3 4.8 93 0.5 WSW 7 15 4 8 1009.8 - 1.2
16/06:00pm 5.9 2.6 4.5 91 0.7 NW 11 17 6 9 1009.6 1011.6 0.8
16/05:30pm 6.2 2.1 4.4 88 0.8 W 15 30 8 16 1009.3 - 0.6
16/05:00pm 6.4 1.6 4.7 89 0.8 NW 19 28 10 15 1009.1 - 0.6
16/04:30pm 7.3 3.1 5.8 90 0.7 NW 17 26 9 14 1008.6 - 0.6
16/04:00pm 6.8 0.7 4.8 87 0.9 WNW 26 39 14 21 1008.4 - 0.4
16/03:30pm 9.6 3.5 2.5 61 3.3 WNW 24 39 13 21 1007.9 - 0.0
16/03:00pm 10.2 3.3 2.8 60 3.5 WNW 28 37 15 20 1007.7 1009.6 0.0
16/02:30pm 11.7 5.1 4.0 59 3.7 WNW 28 39 15 21 1007.5 - 0.0
16/02:00pm 11.7 5.7 3.5 57 3.9 WNW 24 35 13 19 1007.7 - 0.0
16/01:30pm 11.3 4.6 3.8 60 3.6 WNW 28 37 15 20 1007.6 - 0.0
16/01:00pm 12.1 6.4 3.1 54 4.3 NW 22 32 12 17 1007.8 - 0.0
16/12:30pm 10.8 5.3 1.6 53 4.2 NW 20 32 11 17 1008.0 - 0.0
16/12:00pm 12.0 6.5 1.9 50 4.7 NNW 20 30 11 16 1008.5 1010.4 0.0
16/11:30am 12.3 6.3 1.3 47 5.0 NNW 22 33 12 18 1008.7 - 0.0
16/11:00am 10.5 4.7 2.1 56 3.9 NNW 22 33 12 18 1008.9 - 0.0
16/10:30am 12.1 6.6 2.0 50 4.7 NNW 20 30 11 16 1009.2 - 0.0
16/10:00am 11.8 7.8 2.8 54 4.2 N 13 30 7 16 1009.1 - 0.0
16/09:30am 11.4 6.7 2.9 56 4.0 N 17 30 9 16 1009.1 - 0.0
16/09:00am 11.2 7.4 4.0 61 3.5 N 13 22 7 12 1009.5 1011.5 0.2
16/08:30am 10.3 5.6 2.9 60 3.5 N 17 28 9 15 1009.6 - 0.2
16/08:00am 9.6 4.8 2.7 62 3.2 N 17 28 9 15 1009.5 - 0.2
16/07:30am 9.0 4.5 2.3 63 3.1 N 15 26 8 14 1009.5 - 0.2
16/07:00am 7.3 4.0 2.2 70 2.3 N 9 13 5 7 1009.4 - 0.2
16/06:30am 3.8 1.2 1.2 83 1.1 WNW 4 6 2 3 1009.4 - 0.2
16/06:00am 6.0 3.2 2.1 76 1.7 N 6 7 3 4 1009.3 1011.3 0.2
16/05:30am 6.3 3.4 1.4 71 2.1 NNW 6 9 3 5 1009.4 - 0.2
16/05:00am 7.0 4.0 1.9 70 2.3 NNE 7 15 4 8 1009.4 - 0.2
16/04:30am 3.6 1.2 2.1 90 0.6 SSW 4 7 2 4 1009.4 - 0.2
16/04:00am 4.5 2.4 1.7 82 1.2 NE 2 4 1 2 1009.4 - 0.2
16/03:30am 5.9 3.1 2.2 77 1.6 NE 6 7 3 4 1009.5 - 0.2
16/03:00am 5.6 3.2 2.1 78 1.5 WNW 4 7 2 4 1010.1 1012.1 0.2
16/02:30am 6.8 3.6 2.9 76 1.8 NNE 9 17 5 9 1010.4 - 0.2
16/02:00am 5.7 3.2 3.5 86 1.0 NNE 6 6 3 3 1010.9 - 0.2
16/01:30am 4.1 2.4 3.8 98 0.1 ENE 2 6 1 3 1011.2 - 0.2
16/01:00am 4.3 3.0 4.2 99 0.0 CALM 0 2 0 1 1011.5 - 0.2
16/12:57am 4.2 2.9 4.1 99 0.0 CALM 0 4 0 2 1011.7 - 0.2
16/12:33am 4.4 2.7 4.1 98 0.1 NNE 2 6 1 3 1011.8 - 0.2
16/12:30am 4.3 2.2 3.9 97 0.2 NNE 4 6 2 3 1011.9 - 0.2
16/12:00am 5.1 2.8 5.0 99 0.0 NNE 6 7 3 4 1012.2 1014.3 0.2
 
Date/Time
EST
Temp
°C
App
Temp
°C
Dew
Point
Rel
Hum
%
Delta-T
°C
Wind Press
QNH
hPa
Press
MSL
hPa
Rain
since 9 am
mm
Dir
 
Spd
km/h
Gust
km/h
Spd
kts
Gust
kts
15/11:30pm 5.1 2.6 5.0 99 0.0 ENE 7 9 4 5 1012.5 - 0.2
15/11:00pm 5.0 2.1 4.6 97 0.2 ENE 9 13 5 7 1012.7 - 0.2
15/10:30pm 5.5 2.2 4.8 95 0.3 ENE 11 15 6 8 1013.1 - 0.2
15/10:00pm 5.5 2.6 4.5 93 0.5 ENE 9 13 5 7 1013.4 - 0.2
15/09:30pm 5.5 2.1 4.2 91 0.6 ENE 11 15 6 8 1013.8 - 0.2
15/09:00pm 5.7 2.2 3.5 86 1.0 ENE 11 17 6 9 1014.2 1016.3 0.2
15/08:30pm 6.1 3.0 3.4 83 1.2 NE 9 13 5 7 1014.4 - 0.2
15/08:00pm 6.0 3.1 2.8 80 1.4 ENE 7 11 4 6 1014.5 - 0.2
15/07:38pm 6.2 3.4 3.0 80 1.4 ENE 7 11 4 6 1014.6 - 0.2
15/07:30pm 6.2 3.6 3.0 80 1.4 ENE 6 7 3 4 1014.5 - 0.2
15/07:23pm 6.1 3.9 3.1 81 1.4 ENE 4 7 2 4 1014.5 - 0.2
15/07:00pm 6.1 3.9 3.1 81 1.4 NE 4 6 2 3 1014.5 - 0.2
15/06:30pm 6.3 3.8 3.5 82 1.3 N 6 7 3 4 1014.5 - 0.2
15/06:00pm 6.3 2.4 3.6 83 1.2 NW 13 17 7 9 1014.7 1016.9 0.2
15/05:30pm 6.4 2.4 3.0 79 1.5 WNW 13 19 7 10 1014.7 - 0.2
15/05:00pm 8.8 2.4 1.0 58 3.4 NW 24 32 13 17 1014.5 - 0.0
15/04:30pm 10.0 5.8 1.9 57 3.7 NNW 13 17 7 9 1014.4 - 0.0
15/04:00pm 11.0 6.7 1.3 51 4.4 NW 13 20 7 11 1014.2 - 0.0
15/03:30pm 11.9 8.1 1.5 49 4.8 NW 11 17 6 9 1014.3 - 0.0
15/03:00pm 11.3 6.3 1.5 51 4.5 NNW 17 26 9 14 1014.4 1016.5 0.0
15/02:30pm 11.9 8.2 2.1 51 4.6 NNW 11 17 6 9 1014.5 - 0.0
15/02:00pm 11.0 7.9 3.5 60 3.6 NE 9 13 5 7 1014.8 - 0.0
15/01:30pm 12.1 9.4 2.8 53 4.4 NNE 6 7 3 4 1015.1 - 0.0
15/01:00pm 11.5 8.2 2.3 53 4.3 NNW 9 17 5 9 1015.4 - 0.0
15/12:30pm 11.1 7.8 2.4 55 4.0 N 9 13 5 7 1015.7 - 0.0
15/12:00pm 10.7 7.4 2.5 57 3.8 WNW 9 17 5 9 1016.3 1018.5 0.0
15/11:30am 10.2 5.2 1.6 55 3.9 NNW 17 22 9 12 1016.8 - 0.0
15/11:00am 10.4 5.9 2.0 56 3.8 NW 15 22 8 12 1017.2 - 0.0
15/10:30am 10.1 6.0 2.2 58 3.6 NW 13 20 7 11 1017.4 - 0.0
15/10:00am 9.6 5.5 2.0 59 3.5 NNW 13 20 7 11 1017.7 - 0.0
15/09:30am 9.8 5.8 2.6 61 3.3 NNW 13 19 7 10 1017.7 - 0.0
15/09:00am 8.9 5.4 1.1 58 3.4 NW 9 13 5 7 1018.0 1020.3 0.0
15/08:30am 7.5 4.4 1.6 66 2.6 NNW 7 11 4 6 1018.0 - 0.0
15/08:00am 8.0 4.7 2.5 68 2.5 NW 9 13 5 7 1017.9 - 0.0
15/07:30am 5.9 3.1 1.8 75 1.8 NNW 6 7 3 4 1017.6 - 0.0
15/07:00am 3.6 0.5 0.3 79 1.4 NNW 6 7 3 4 1017.3 - 0.0
15/06:30am 0.9 -2.5 -1.8 82 1.1 NW 6 9 3 5 1017.2 - 0.0
15/06:00am 1.4 -1.9 -1.5 81 1.1 NW 6 7 3 4 1017.0 1019.2 0.0
15/05:30am 0.3 -2.4 -2.4 82 1.0 NW 2 7 1 4 1016.9 - 0.0
15/05:00am -0.2 -3.4 -3.1 81 1.0 NNW 4 9 2 5 1016.9 - 0.0
15/04:30am -0.7 -4.2 -3.1 84 0.8 NW 6 7 3 4 1017.0 - 0.0
15/04:15am 1.4 -1.5 -1.3 82 1.0 NW 4 6 2 3 1017.0 - 0.0
15/04:00am 1.7 -1.2 -1.0 82 1.1 NW 4 6 2 3 1017.1 - 0.0
15/03:46am 1.3 -1.9 -0.6 87 0.7 WNW 6 7 3 4 1017.2 - 0.0
15/03:30am 0.9 -2.3 -0.5 90 0.5 WNW 6 7 3 4 1017.4 - 0.0
15/03:00am 1.3 -1.7 0.9 97 0.2 NW 6 6 3 3 1017.6 1019.8 0.0
15/02:30am 1.3 -1.6 1.2 99 0.0 WNW 6 7 3 4 1018.0 - 0.0
15/02:04am 1.5 -1.4 1.4 99 0.0 WNW 6 6 3 3 1018.2 - 0.0
15/02:00am 1.4 -1.1 1.3 99 0.0 WNW 4 6 2 3 1018.4 - 0.0
15/01:46am 1.9 -0.6 1.8 99 0.0 WNW 4 6 2 3 1018.5 - 0.0
15/01:43am 1.7 -0.8 1.6 99 0.0 WNW 4 6 2 3 1018.6 - 0.0
15/01:32am 0.8 -2.2 0.7 99 0.0 WNW 6 6 3 3 1018.6 - 0.0
15/01:30am 0.8 -2.2 0.7 99 0.0 WNW 6 6 3 3 1018.7 - 0.0
15/01:00am 1.4 -1.5 1.3 99 0.0 WNW 6 7 3 4 1019.0 - 0.0
15/12:33am 1.3 -1.6 1.2 99 0.0 WNW 6 6 3 3 1019.1 - 0.0
15/12:30am 1.2 -1.8 1.1 99 0.0 WNW 6 7 3 4 1019.1 - 0.0
15/12:00am 1.7 -0.4 1.6 99 0.0 NNW 2 4 1 2 1019.3 1021.6 0.0
 
Date/Time
EST
Temp
°C
App
Temp
°C
Dew
Point
Rel
Hum
%
Delta-T
°C
Wind Press
QNH
hPa
Press
MSL
hPa
Rain
since 9 am
mm
Dir
 
Spd
km/h
Gust
km/h
Spd
kts
Gust
kts
14/11:30pm 2.0 0.3 1.9 99 0.0 CALM 0 2 0 1 1019.4 - 0.0
14/11:00pm 1.8 -0.3 1.7 99 0.0 W 2 6 1 3 1019.5 - 0.0
14/10:48pm 1.7 -0.4 1.6 99 0.0 W 2 4 1 2 1019.5 - 0.0
14/10:30pm 2.4 0.0 2.3 99 0.0 WNW 4 6 2 3 1019.6 - 0.0
14/10:26pm 2.4 0.0 2.3 99 0.0 WNW 4 4 2 2 1019.7 - 0.0
14/10:05pm 1.7 -0.8 1.6 99 0.0 NW 4 4 2 2 1019.7 - 0.0
14/10:02pm 2.2 0.2 2.1 99 0.0 N 2 4 1 2 1019.7 - 0.0
14/10:00pm 2.2 0.2 2.1 99 0.0 E 2 4 1 2 1019.8 - 0.0
14/09:38pm 2.9 1.4 2.8 99 0.0 CALM 0 2 0 1 1019.9 - 0.0
14/09:30pm 3.8 2.0 3.7 99 0.0 ESE 2 4 1 2 1019.9 - 0.0
14/09:00pm 3.9 2.2 3.8 99 0.0 S 2 6 1 3 1020.2 1022.5 0.0
14/08:37pm 3.2 0.5 2.6 96 0.3 SW 6 7 3 4 1020.1 - 0.0
14/08:30pm 3.5 1.2 2.9 96 0.3 SSW 4 7 2 4 1019.9 - 0.0
14/08:27pm 3.9 2.1 3.3 96 0.3 S 2 7 1 4 1019.9 - 0.0
14/08:00pm 3.4 1.4 2.1 91 0.6 W 2 4 1 2 1019.7 - 0.0
14/07:30pm 3.3 0.8 1.3 87 0.8 WSW 4 7 2 4 1019.6 - 0.0
14/07:00pm 4.7 2.3 2.4 85 1.0 S 4 7 2 4 1019.7 - 0.0
14/06:30pm 5.1 2.3 1.9 80 1.4 SSW 6 7 3 4 1019.3 - 0.0
14/06:00pm 7.8 5.6 3.1 72 2.2 ENE 4 4 2 2 1019.0 1021.3 0.0
14/05:30pm 8.8 6.0 3.2 68 2.6 ESE 7 9 4 5 1018.9 - 0.0
14/05:00pm 9.6 6.5 3.8 67 2.7 E 9 11 5 6 1018.8 - 0.0
14/04:30pm 9.8 6.0 3.8 66 2.8 ESE 13 17 7 9 1018.7 - 0.0
14/04:00pm 10.1 6.8 2.5 59 3.5 W 9 17 5 9 1018.7 - 0.0
14/03:30pm 10.6 7.7 1.4 53 4.2 N 6 11 3 6 1018.7 - 0.0
14/03:00pm 10.9 7.7 0.6 49 4.6 SW 7 15 4 8 1018.7 1021.0 0.0
14/02:30pm 10.9 6.5 0.3 48 4.7 W 13 19 7 10 1018.8 - 0.0
14/02:00pm 11.1 7.1 0.5 48 4.7 WSW 11 19 6 10 1018.9 - 0.0
14/01:30pm 12.6 8.4 -1.0 39 5.9 WSW 11 19 6 10 1018.9 - 0.0
14/01:00pm 11.9 7.3 -0.9 41 5.6 W 13 22 7 12 1019.0 - 0.0
14/12:30pm 12.2 8.6 0.9 46 5.1 WSW 9 17 5 9 1019.3 - 0.0
14/12:00pm 11.9 7.6 0.7 46 5.0 SW 13 24 7 13 1019.6 1021.9 0.0
14/11:30am 10.6 5.4 -0.2 47 4.7 SSW 17 24 9 13 1019.9 - 0.0
14/11:00am 10.7 5.6 0.7 50 4.5 SSW 17 22 9 12 1020.2 - 0.0
14/10:30am 9.8 5.0 -0.1 50 4.3 SSW 15 22 8 12 1020.6 - 0.0
14/10:00am 9.2 4.4 -0.1 52 4.0 SSW 15 20 8 11 1020.7 - 0.0
14/09:30am 8.9 4.4 -0.4 52 4.0 WSW 13 19 7 10 1020.8 - 0.0
14/09:00am 8.3 4.6 -0.2 55 3.6 W 9 20 5 11 1021.0 1023.3 0.0
14/08:30am 7.3 3.3 0.3 61 3.0 W 11 17 6 9 1021.0 - 0.0
14/08:00am 6.2 3.0 0.5 67 2.4 W 7 13 4 7 1021.1 - 0.0
14/07:30am 4.5 1.4 1.2 79 1.4 WNW 7 11 4 6 1021.0 - 0.0
14/07:00am 1.7 -1.8 -1.2 81 1.1 WNW 7 9 4 5 1020.7 - 0.0
14/06:43am 0.7 -2.8 -1.4 86 0.8 WNW 7 9 4 5 1020.7 - 0.0
14/06:30am 0.4 -3.1 -1.0 90 0.6 NW 7 7 4 4 1020.6 - 0.0
14/06:28am 0.3 -3.2 -1.1 90 0.6 NW 7 7 4 4 1020.6 - 0.0
14/06:00am 0.8 -2.7 -1.1 87 0.7 NNW 7 9 4 5 1020.6 1023.0 0.0
14/05:30am -1.3 -4.3 -2.0 95 0.2 NW 4 4 2 2 1020.5 - 0.0
14/05:00am 0.1 -1.9 -0.3 97 0.2 CALM 0 0 0 0 1020.6 - 0.0
14/04:30am 0.2 -1.9 -0.5 95 0.3 CALM 0 0 0 0 1020.6 - 0.0
14/04:00am 0.6 -2.2 -0.4 93 0.4 NW 4 6 2 3 1020.6 - 0.0
14/03:30am 0.3 -2.2 -1.1 90 0.6 SSW 2 4 1 2 1020.7 - 0.0
14/03:00am 0.5 -2.4 -0.8 91 0.5 WSW 4 7 2 4 1020.8 1023.2 0.0
14/02:30am 1.6 -0.8 -0.2 88 0.7 E 2 6 1 3 1021.1 - 0.0
14/02:00am 2.4 -0.2 1.1 91 0.5 W 4 9 2 5 1021.3 - 0.0
14/01:30am 2.1 -1.3 2.0 99 0.0 NNW 9 11 5 6 1021.3 - 0.0
14/01:00am 1.1 -1.2 0.5 96 0.2 WNW 2 6 1 3 1021.6 - 0.0
14/12:30am 2.6 -0.9 1.4 92 0.5 NNW 9 13 5 7 1021.8 - 0.0
14/12:00am 3.3 -0.4 2.1 92 0.5 NNW 11 13 6 7 1021.6 1024.0 0.0
 
Date/Time
EST
Temp
°C
App
Temp
°C
Dew
Point
Rel
Hum
%
Delta-T
°C
Wind Press
QNH
hPa
Press
MSL
hPa
Rain
since 9 am
mm
Dir
 
Spd
km/h
Gust
km/h
Spd
kts
Gust
kts
13/11:30pm 3.2 -0.7 1.4 88 0.8 WNW 11 17 6 9 1022.1 - 0.0
13/11:00pm 3.1 -1.1 1.9 92 0.5 NW 13 15 7 8 1022.2 - 0.0
13/10:30pm 3.8 0.5 2.6 92 0.5 NW 9 15 5 8 1022.3 - 0.0
13/10:00pm 1.8 -2.0 1.7 99 0.0 WNW 11 13 6 7 1022.5 - 0.0
13/09:30pm 1.2 -2.0 0.5 95 0.3 NNW 7 7 4 4 1022.7 - 0.0

Other Formats:

Comma delimited format used in spreadsheet applications
http://www.bom.gov.au/fwo/IDV60801/IDV60801.94905.axf

JavaScript Object Notation format (JSON) in row-major order
http://www.bom.gov.au/fwo/IDV60801/IDV60801.94905.json